41.7°F
Current conditions from King Hill
Updated every 5 minutes
 
  Tuesday November 25, 2014

Station Historical Data
Daily Summary for July 14, 2011 Units:  English    Metric   Both
« Previous Day
Next Day »
Daily Weekly Monthly Yearly Custom
  High: Low: Average:
Temperature: 78.3 °F 53.1 °F 64.6 °F
Dew Point: 65.0 °F 52.0 °F 57.7 °F
Humidity: 97% 48% 81%
Wind Speed: 6.0mph 0.0mph 1.8mph
Wind Gust: 11.0mph - -
Wind- - WSW
Pressure: 30.03 in 29.89 in -
Precipitation: 0.01 in    
Historical Graphs
 
 
Tabular Data for July 14, 2011
Time Temperature Dew Point Pressure Wind Wind Speed Wind Gust Humidity Daily Rainfall
00:00 58.2 °F 57.1 °F 29.89 in Calm   1.0 mph 96% 0.62 in
00:05 58.4 °F 57.3 °F 29.89 in Calm   1.0 mph 96% 0.00 in
00:10 58.4 °F 57.3 °F 29.89 in Calm   1.0 mph 96% 0.00 in
00:15 57.7 °F 56.3 °F 29.89 in Calm   1.0 mph 95% 0.00 in
00:20 57.3 °F 55.9 °F 29.89 in Calm   1.0 mph 95% 0.00 in
00:25 57.4 °F 56.0 °F 29.89 in Calm   4.0 mph 95% 0.00 in
00:30 58.2 °F 57.1 °F 29.89 in NE 2.0 mph 5.0 mph 96% 0.00 in
00:35 58.6 °F 57.5 °F 29.89 in Calm   5.0 mph 96% 0.00 in
00:40 58.6 °F 57.5 °F 29.89 in Calm   1.0 mph 96% 0.00 in
00:45 58.5 °F 57.4 °F 29.89 in Calm   2.0 mph 96% 0.00 in
00:50 58.2 °F 57.1 °F 29.89 in Calm   2.0 mph 96% 0.00 in
00:55 58.2 °F 57.1 °F 29.89 in NNE 1.0 mph 3.0 mph 96% 0.00 in
01:00 58.5 °F 57.4 °F 29.90 in Calm   3.0 mph 96% 0.00 in
01:05 58.7 °F 57.6 °F 29.89 in Calm   3.0 mph 96% 0.00 in
01:10 58.6 °F 57.5 °F 29.89 in Calm   3.0 mph 96% 0.00 in
01:15 58.6 °F 57.5 °F 29.89 in Calm   1.0 mph 96% 0.00 in
01:20 58.6 °F 57.5 °F 29.89 in NNE 1.0 mph 5.0 mph 96% 0.00 in
01:25 58.7 °F 57.6 °F 29.89 in Calm   5.0 mph 96% 0.00 in
01:30 58.5 °F 57.4 °F 29.90 in Calm   4.0 mph 96% 0.00 in
01:35 58.4 °F 57.3 °F 29.90 in Calm   4.0 mph 96% 0.00 in
01:40 58.3 °F 57.2 °F 29.90 in Calm   1.0 mph 96% 0.00 in
01:45 58.3 °F 57.2 °F 29.90 in Calm   2.0 mph 96% 0.00 in
01:50 58.2 °F 57.1 °F 29.90 in Calm   3.0 mph 96% 0.00 in
01:55 58.2 °F 57.1 °F 29.90 in Calm   3.0 mph 96% 0.00 in
02:00 58.0 °F 56.9 °F 29.90 in Calm   3.0 mph 96% 0.00 in
02:05 57.8 °F 56.7 °F 29.90 in Calm   2.0 mph 96% 0.00 in
02:10 57.7 °F 56.6 °F 29.90 in Calm   2.0 mph 96% 0.00 in
02:15 57.5 °F 56.4 °F 29.90 in Calm   2.0 mph 96% 0.00 in
02:20 57.1 °F 56.0 °F 29.90 in Calm   2.0 mph 96% 0.00 in
02:25 56.7 °F 55.6 °F 29.90 in Calm     96% 0.00 in
02:30 56.4 °F 55.0 °F 29.90 in Calm     95% 0.00 in
02:35 56.3 °F 55.2 °F 29.90 in Calm     96% 0.00 in
02:40 56.1 °F 55.0 °F 29.90 in Calm   1.0 mph 96% 0.00 in
02:45 55.8 °F 54.4 °F 29.90 in Calm   1.0 mph 95% 0.00 in
02:50 55.4 °F 54.0 °F 29.90 in Calm     95% 0.00 in
02:55 55.1 °F 53.7 °F 29.90 in Calm     95% 0.00 in
03:00 54.9 °F 53.5 °F 29.91 in Calm     95% 0.00 in
03:05 54.8 °F 53.7 °F 29.91 in Calm     96% 0.00 in
03:10 54.5 °F 53.1 °F 29.91 in Calm     95% 0.00 in
03:15 54.5 °F 53.1 °F 29.91 in Calm     95% 0.00 in
03:20 54.4 °F 53.0 °F 29.91 in Calm     95% 0.00 in
03:25 54.0 °F 52.6 °F 29.91 in Calm     95% 0.00 in
03:30 53.8 °F 52.4 °F 29.91 in Calm   1.0 mph 95% 0.00 in
03:35 53.9 °F 52.8 °F 29.91 in Calm   1.0 mph 96% 0.00 in
03:40 54.4 °F 53.3 °F 29.91 in Calm     96% 0.00 in
03:45 54.3 °F 53.2 °F 29.91 in Calm     96% 0.00 in
03:50 54.3 °F 53.2 °F 29.91 in Calm     96% 0.00 in
03:55 54.0 °F 52.9 °F 29.91 in Calm     96% 0.00 in
04:00 54.1 °F 53.0 °F 29.91 in Calm     96% 0.00 in
04:05 54.2 °F 53.1 °F 29.91 in Calm     96% 0.00 in
04:10 54.0 °F 52.9 °F 29.91 in Calm   1.0 mph 96% 0.00 in
04:15 53.9 °F 52.8 °F 29.92 in Calm   1.0 mph 96% 0.00 in
04:20 53.6 °F 52.5 °F 29.92 in Calm     96% 0.00 in
04:25 53.4 °F 52.3 °F 29.92 in Calm     96% 0.00 in
04:30 53.3 °F 52.2 °F 29.92 in Calm     96% 0.00 in
04:35 53.2 °F 52.1 °F 29.92 in Calm     96% 0.00 in
04:40 53.1 °F 52.0 °F 29.92 in Calm   1.0 mph 96% 0.00 in
04:45 53.2 °F 52.1 °F 29.93 in Calm   1.0 mph 96% 0.00 in
04:50 53.3 °F 52.2 °F 29.93 in Calm   1.0 mph 96% 0.00 in
04:55 53.5 °F 52.4 °F 29.93 in Calm     96% 0.00 in
05:00 53.7 °F 52.6 °F 29.93 in Calm     96% 0.00 in
05:05 53.7 °F 52.6 °F 29.94 in Calm     96% 0.00 in
05:15 53.9 °F 52.8 °F 29.94 in Calm     96% 0.00 in
05:20 53.6 °F 52.5 °F 29.94 in Calm     96% 0.00 in
05:25 53.5 °F 52.4 °F 29.94 in Calm     96% 0.00 in
05:30 53.6 °F 52.5 °F 29.94 in Calm     96% 0.00 in
05:35 53.4 °F 52.3 °F 29.94 in Calm     96% 0.00 in
05:40 53.1 °F 52.0 °F 29.95 in Calm     96% 0.00 in
05:45 53.3 °F 52.2 °F 29.95 in Calm     96% 0.00 in
05:50 53.7 °F 52.6 °F 29.95 in Calm     96% 0.00 in
05:55 53.8 °F 52.7 °F 29.95 in Calm     96% 0.00 in
06:00 53.8 °F 52.7 °F 29.96 in Calm     96% 0.00 in
06:05 53.7 °F 52.6 °F 29.96 in Calm     96% 0.00 in
06:10 53.5 °F 52.4 °F 29.96 in Calm     96% 0.00 in
06:15 53.5 °F 52.4 °F 29.96 in Calm     96% 0.00 in
06:20 53.5 °F 52.4 °F 29.97 in Calm     96% 0.00 in
06:25 53.9 °F 52.8 °F 29.97 in Calm     96% 0.00 in
06:30 54.0 °F 52.9 °F 29.97 in Calm     96% 0.00 in
06:35 54.1 °F 53.0 °F 29.97 in Calm     96% 0.00 in
06:40 54.1 °F 53.0 °F 29.97 in Calm     96% 0.00 in
06:45 54.0 °F 52.9 °F 29.98 in Calm     96% 0.00 in
06:50 54.0 °F 52.9 °F 29.98 in Calm     96% 0.00 in
06:55 54.1 °F 53.0 °F 29.98 in Calm     96% 0.00 in
07:00 54.2 °F 53.1 °F 29.98 in Calm     96% 0.00 in
07:05 54.5 °F 53.4 °F 29.98 in Calm     96% 0.00 in
07:10 54.9 °F 53.8 °F 29.98 in Calm     96% 0.00 in
07:15 55.4 °F 54.3 °F 29.99 in Calm     96% 0.00 in
07:20 56.0 °F 54.9 °F 29.99 in Calm     96% 0.00 in
07:25 56.4 °F 55.6 °F 29.99 in Calm     97% 0.01 in
07:30 56.9 °F 56.1 °F 29.99 in Calm     97% 0.01 in
07:35 57.5 °F 56.7 °F 29.99 in Calm     97% 0.01 in
07:40 57.7 °F 56.9 °F 30.00 in Calm     97% 0.01 in
07:45 58.0 °F 57.2 °F 30.00 in Calm   1.0 mph 97% 0.01 in
07:50 58.0 °F 57.2 °F 30.00 in Calm   1.0 mph 97% 0.01 in
07:55 58.7 °F 57.9 °F 30.00 in Calm   1.0 mph 97% 0.01 in
08:00 59.5 °F 58.6 °F 30.00 in Calm     97% 0.01 in
08:05 60.0 °F 59.1 °F 30.00 in Calm     97% 0.01 in
08:10 60.5 °F 59.6 °F 30.01 in Calm   1.0 mph 97% 0.01 in
08:15 60.7 °F 59.8 °F 30.01 in Calm   4.0 mph 97% 0.01 in
08:20 60.5 °F 59.6 °F 30.02 in NW 2.0 mph 8.0 mph 97% 0.01 in
08:25 60.3 °F 59.4 °F 30.02 in WNW 3.0 mph 9.0 mph 97% 0.01 in
08:30 60.2 °F 59.3 °F 30.02 in NW 3.0 mph 9.0 mph 97% 0.01 in
08:35 60.6 °F 59.7 °F 30.02 in NW 2.0 mph 9.0 mph 97% 0.01 in
08:40 61.0 °F 59.9 °F 30.02 in NW 3.0 mph 6.0 mph 96% 0.01 in
08:45 61.6 °F 60.4 °F 30.02 in Calm   9.0 mph 96% 0.01 in
08:50 61.8 °F 60.6 °F 30.02 in Calm   9.0 mph 96% 0.01 in
08:55 62.0 °F 60.6 °F 30.02 in Calm   8.0 mph 95% 0.01 in
09:00 62.8 °F 61.3 °F 30.02 in Calm   6.0 mph 95% 0.01 in
09:05 63.4 °F 61.6 °F 30.02 in Calm   1.0 mph 94% 0.01 in
09:10 64.0 °F 61.9 °F 30.02 in NW 1.0 mph 4.0 mph 93% 0.01 in
09:15 64.9 °F 61.9 °F 30.03 in Calm   4.0 mph 90% 0.01 in
09:20 65.5 °F 61.5 °F 30.02 in Calm   4.0 mph 87% 0.01 in
09:25 65.7 °F 60.7 °F 30.02 in Calm   1.0 mph 84% 0.01 in
09:35 66.5 °F 61.5 °F 30.02 in WNW 1.0 mph 3.0 mph 84% 0.01 in
09:40 66.8 °F 61.5 °F 30.02 in Calm   4.0 mph 83% 0.01 in
09:45 67.4 °F 62.4 °F 30.02 in Calm   4.0 mph 84% 0.01 in
09:50 68.0 °F 62.0 °F 30.02 in Calm   1.0 mph 81% 0.01 in
09:55 68.4 °F 62.3 °F 30.02 in Calm   3.0 mph 81% 0.01 in
10:00 68.9 °F 62.8 °F 30.03 in Calm   3.0 mph 81% 0.01 in
10:05 69.5 °F 62.7 °F 30.02 in Calm   1.0 mph 79% 0.01 in
10:10 69.9 °F 62.4 °F 30.02 in NW 3.0 mph 7.0 mph 77% 0.01 in
10:15 69.7 °F 62.2 °F 30.02 in WNW 1.0 mph 7.0 mph 77% 0.01 in
10:20 69.5 °F 62.0 °F 30.02 in WNW 1.0 mph 7.0 mph 77% 0.01 in
10:25 69.5 °F 62.0 °F 30.02 in Calm   7.0 mph 77% 0.01 in
10:35 70.6 °F 62.3 °F 30.02 in Calm   5.0 mph 75% 0.01 in
10:40 71.4 °F 63.4 °F 30.02 in Calm   3.0 mph 76% 0.01 in
10:45 72.2 °F 65.0 °F 30.02 in Calm   3.0 mph 78% 0.01 in
10:50 72.6 °F 63.5 °F 30.02 in Calm   3.0 mph 73% 0.01 in
10:55 73.1 °F 63.1 °F 30.02 in Calm   3.0 mph 71% 0.01 in
11:00 73.6 °F 62.8 °F 30.02 in Calm   1.0 mph 69% 0.01 in
11:05 73.7 °F 64.5 °F 30.02 in NW 1.0 mph 4.0 mph 73% 0.01 in
11:10 73.5 °F 62.7 °F 30.02 in Calm   7.0 mph 69% 0.01 in
11:15 72.6 °F 61.4 °F 30.02 in WNW 3.0 mph 7.0 mph 68% 0.01 in
11:25 72.1 °F 63.0 °F 30.03 in Calm   9.0 mph 73% 0.01 in
11:30 72.4 °F 61.3 °F 30.02 in Calm   6.0 mph 68% 0.01 in
11:35 73.1 °F 62.7 °F 30.02 in Calm   5.0 mph 70% 0.01 in
11:40 73.5 °F 62.3 °F 30.02 in Calm   5.0 mph 68% 0.01 in
11:45 73.7 °F 62.5 °F 30.02 in Calm   5.0 mph 68% 0.01 in
11:50 74.3 °F 60.0 °F 30.02 in Calm   4.0 mph 61% 0.01 in
11:55 74.7 °F 64.3 °F 30.02 in NNW 1.0 mph 6.0 mph 70% 0.01 in
12:00 74.8 °F 60.5 °F 30.01 in Calm   6.0 mph 61% 0.01 in
12:05 74.7 °F 59.4 °F 30.01 in Calm   6.0 mph 59% 0.01 in
12:10 74.8 °F 60.9 °F 30.01 in NNE 2.0 mph 6.0 mph 62% 0.01 in
12:15 74.8 °F 60.9 °F 30.01 in NW 3.0 mph 8.0 mph 62% 0.01 in
12:20 75.2 °F 62.6 °F 30.01 in Calm   8.0 mph 65% 0.01 in
12:25 75.5 °F 61.1 °F 30.01 in Calm   4.0 mph 61% 0.01 in
12:30 75.7 °F 59.9 °F 30.01 in NE 1.0 mph 5.0 mph 58% 0.01 in
12:35 75.7 °F 59.4 °F 30.01 in Calm   5.0 mph 57% 0.01 in
12:40 75.6 °F 57.8 °F 30.00 in North 2.0 mph 5.0 mph 54% 0.01 in
12:45 75.4 °F 60.1 °F 30.01 in Calm   5.0 mph 59% 0.01 in
12:50 75.5 °F 61.6 °F 30.00 in NW 1.0 mph 5.0 mph 62% 0.01 in
12:55 75.5 °F 59.7 °F 30.00 in WNW 4.0 mph 7.0 mph 58% 0.01 in
13:00 75.8 °F 61.9 °F 30.00 in Calm   7.0 mph 62% 0.01 in
13:05 76.1 °F 59.8 °F 30.00 in NW 1.0 mph 6.0 mph 57% 0.01 in
13:10 76.3 °F 60.0 °F 30.00 in WNW 1.0 mph 6.0 mph 57% 0.01 in
13:15 76.3 °F 59.0 °F 30.00 in WNW 4.0 mph 8.0 mph 55% 0.01 in
13:20 75.8 °F 58.5 °F 30.00 in WNW 6.0 mph 11.0 mph 55% 0.01 in
13:25 75.8 °F 56.9 °F 30.00 in Calm   11.0 mph 52% 0.01 in
13:30 75.8 °F 63.2 °F 30.00 in NW 1.0 mph 10.0 mph 65% 0.01 in
13:35 76.3 °F 61.4 °F 30.00 in Calm   7.0 mph 60% 0.01 in
13:40 76.7 °F 59.8 °F 30.00 in Calm   5.0 mph 56% 0.01 in
13:45 76.5 °F 57.6 °F 30.00 in NE 2.0 mph 7.0 mph 52% 0.01 in
13:50 76.2 °F 61.3 °F 29.99 in Calm   7.0 mph 60% 0.01 in
13:55 76.7 °F 59.8 °F 29.99 in Calm   9.0 mph 56% 0.01 in
14:00 77.0 °F 62.5 °F 29.99 in NNE 1.0 mph 9.0 mph 61% 0.01 in
14:05 76.9 °F 62.0 °F 29.99 in NW 1.0 mph 6.0 mph 60% 0.01 in
14:10 77.0 °F 60.6 °F 30.00 in NW 4.0 mph 7.0 mph 57% 0.01 in
14:15 77.2 °F 58.8 °F 30.00 in NE 1.0 mph 7.0 mph 53% 0.01 in
14:20 77.1 °F 62.6 °F 30.00 in Calm   7.0 mph 61% 0.01 in
14:25 77.0 °F 61.1 °F 29.99 in NW 2.0 mph 7.0 mph 58% 0.01 in
14:30 76.4 °F 60.1 °F 29.99 in Calm   7.0 mph 57% 0.01 in
14:35 77.1 °F 62.6 °F 29.99 in Calm   5.0 mph 61% 0.01 in
14:40 77.8 °F 61.4 °F 29.99 in NW 1.0 mph 6.0 mph 57% 0.01 in
14:45 78.1 °F 61.6 °F 29.99 in NE 1.0 mph 6.0 mph 57% 0.01 in
14:50 78.0 °F 61.6 °F 29.99 in Calm   6.0 mph 57% 0.01 in
14:55 78.2 °F 62.2 °F 29.99 in NW 1.0 mph 8.0 mph 58% 0.01 in
15:00 78.0 °F 60.5 °F 29.99 in Calm   8.0 mph 55% 0.01 in
15:05 77.8 °F 60.9 °F 29.99 in Calm   5.0 mph 56% 0.01 in
15:10 77.7 °F 63.7 °F 29.99 in Calm   2.0 mph 62% 0.01 in
15:20 76.7 °F 59.3 °F 29.99 in Calm   6.0 mph 55% 0.01 in
15:30 76.1 °F 62.2 °F 29.99 in Calm   6.0 mph 62% 0.01 in
15:35 75.9 °F 59.6 °F 29.99 in NW 2.0 mph 7.0 mph 57% 0.01 in
15:40 75.8 °F 61.9 °F 29.99 in Calm   8.0 mph 62% 0.01 in
15:45 75.7 °F 58.9 °F 29.99 in NW 3.0 mph 9.0 mph 56% 0.01 in
15:50 75.4 °F 59.1 °F 29.99 in NW 3.0 mph 9.0 mph 57% 0.01 in
15:55 76.1 °F 59.8 °F 29.99 in NW 2.0 mph 8.0 mph 57% 0.01 in
16:00 76.8 °F 58.9 °F 29.99 in NNE 1.0 mph 7.0 mph 54% 0.01 in
16:10 76.6 °F 60.2 °F 29.99 in NW 2.0 mph 8.0 mph 57% 0.01 in
16:15 77.0 °F 59.6 °F 29.99 in WNW 4.0 mph 8.0 mph 55% 0.01 in
16:20 77.3 °F 61.4 °F 29.99 in NW 1.0 mph 9.0 mph 58% 0.01 in
16:25 77.4 °F 59.0 °F 29.98 in WNW 4.0 mph 9.0 mph 53% 0.01 in
16:30 77.3 °F 60.4 °F 29.99 in NW 1.0 mph 7.0 mph 56% 0.01 in
16:35 77.3 °F 61.4 °F 29.98 in WNW 3.0 mph 8.0 mph 58% 0.01 in
16:40 77.3 °F 58.9 °F 29.98 in NNE 1.0 mph 8.0 mph 53% 0.01 in
16:45 77.4 °F 57.3 °F 29.98 in NE 1.0 mph 6.0 mph 50% 0.01 in
16:50 77.5 °F 60.1 °F 29.98 in Calm   6.0 mph 55% 0.01 in
16:55 77.6 °F 59.7 °F 29.98 in NW 1.0 mph 6.0 mph 54% 0.01 in
17:05 78.3 °F 60.3 °F 29.97 in WNW 1.0 mph 5.0 mph 54% 0.01 in
17:15 77.7 °F 59.2 °F 29.97 in NW 1.0 mph 8.0 mph 53% 0.01 in
17:20 77.9 °F 59.4 °F 29.97 in Calm   6.0 mph 53% 0.01 in
17:25 77.8 °F 58.8 °F 29.97 in NW 1.0 mph 6.0 mph 52% 0.01 in
17:30 77.9 °F 58.9 °F 29.97 in NW 1.0 mph 6.0 mph 52% 0.01 in
17:35 77.5 °F 56.3 °F 29.97 in NW 2.0 mph 10.0 mph 48% 0.01 in
17:40 77.2 °F 58.2 °F 29.97 in Calm   10.0 mph 52% 0.01 in
17:55 77.3 °F 59.9 °F 29.97 in NW 2.0 mph 7.0 mph 55% 0.01 in
18:05 76.2 °F 59.9 °F 29.97 in Calm   6.0 mph 57% 0.01 in
18:10 75.6 °F 61.2 °F 29.96 in Calm     61% 0.01 in
18:15 74.6 °F 59.3 °F 29.96 in NNW 1.0 mph 4.0 mph 59% 0.01 in
18:20 74.0 °F 60.6 °F 29.97 in Calm   4.0 mph 63% 0.01 in
18:25 73.4 °F 61.4 °F 29.97 in Calm   1.0 mph 66% 0.01 in
18:30 72.8 °F 59.9 °F 29.97 in Calm   1.0 mph 64% 0.01 in
18:35 72.6 °F 61.4 °F 29.97 in Calm   2.0 mph 68% 0.01 in
18:40 72.2 °F 57.6 °F 29.97 in Calm   2.0 mph 60% 0.01 in
18:45 72.2 °F 59.4 °F 29.97 in Calm   1.0 mph 64% 0.01 in
18:50 72.2 °F 59.8 °F 29.97 in Calm   2.0 mph 65% 0.01 in
18:55 72.1 °F 59.7 °F 29.97 in Calm   2.0 mph 65% 0.01 in
19:00 71.9 °F 60.8 °F 29.97 in Calm     68% 0.01 in
19:05 71.8 °F 61.5 °F 29.97 in Calm     70% 0.01 in
19:10 71.5 °F 61.6 °F 29.97 in Calm     71% 0.01 in
19:15 71.2 °F 61.7 °F 29.97 in Calm     72% 0.01 in
19:25 70.1 °F 60.3 °F 29.97 in Calm     71% 0.01 in
19:30 69.4 °F 59.2 °F 29.97 in Calm   1.0 mph 70% 0.01 in
19:35 68.8 °F 59.8 °F 29.97 in Calm   1.0 mph 73% 0.01 in
19:40 68.2 °F 58.8 °F 29.97 in Calm     72% 0.01 in
19:45 67.9 °F 59.7 °F 29.97 in Calm     75% 0.01 in
19:55 67.1 °F 59.3 °F 29.98 in Calm     76% 0.01 in
20:00 66.8 °F 58.6 °F 29.98 in Calm     75% 0.01 in
20:05 66.5 °F 59.1 °F 29.98 in Calm     77% 0.01 in
20:10 66.1 °F 58.3 °F 29.98 in Calm     76% 0.01 in
20:15 65.6 °F 58.2 °F 29.98 in Calm   1.0 mph 77% 0.01 in
20:20 65.2 °F 58.2 °F 29.98 in Calm   1.0 mph 78% 0.01 in
20:25 64.8 °F 57.4 °F 29.98 in Calm   1.0 mph 77% 0.01 in
20:30 64.5 °F 57.5 °F 29.98 in Calm     78% 0.01 in
20:35 64.0 °F 57.7 °F 29.98 in Calm     80% 0.01 in
20:40 63.3 °F 57.0 °F 29.98 in Calm     80% 0.01 in
20:45 62.5 °F 56.3 °F 29.98 in Calm     80% 0.01 in
20:50 62.0 °F 56.1 °F 29.99 in Calm     81% 0.01 in
20:55 61.4 °F 55.9 °F 29.99 in Calm     82% 0.01 in
21:00 60.9 °F 55.7 °F 29.99 in Calm     83% 0.01 in
21:05 60.4 °F 55.5 °F 29.99 in Calm     84% 0.01 in
21:10 59.9 °F 55.4 °F 29.99 in Calm     85% 0.01 in
21:15 59.5 °F 55.0 °F 29.99 in Calm     85% 0.01 in
21:20 59.0 °F 54.5 °F 29.99 in Calm     85% 0.01 in
21:25 59.0 °F 54.8 °F 29.99 in Calm     86% 0.01 in
21:30 58.6 °F 54.4 °F 30.00 in Calm     86% 0.01 in
21:35 58.4 °F 54.5 °F 30.00 in Calm     87% 0.01 in
21:40 58.1 °F 54.3 °F 30.00 in Calm     87% 0.01 in
21:45 57.8 °F 54.3 °F 30.00 in Calm     88% 0.01 in
21:50 57.8 °F 54.3 °F 30.00 in Calm     88% 0.01 in
21:55 57.7 °F 54.2 °F 30.00 in Calm     88% 0.01 in
22:00 57.7 °F 54.5 °F 30.00 in Calm     89% 0.01 in
22:05 57.7 °F 54.8 °F 30.00 in Calm     90% 0.01 in
22:10 57.7 °F 54.8 °F 30.00 in Calm     90% 0.01 in
22:15 57.6 °F 54.7 °F 30.00 in Calm     90% 0.01 in
22:25 57.5 °F 54.6 °F 30.00 in Calm     90% 0.01 in
22:30 57.5 °F 54.6 °F 30.00 in Calm     90% 0.01 in
22:35 57.7 °F 54.8 °F 30.00 in Calm     90% 0.01 in
22:40 58.0 °F 55.4 °F 30.00 in Calm     91% 0.01 in
22:45 58.3 °F 55.7 °F 30.00 in Calm     91% 0.01 in
22:50 58.7 °F 56.4 °F 30.00 in Calm     92% 0.01 in
22:55 59.0 °F 56.7 °F 30.00 in Calm     92% 0.01 in
23:00 59.0 °F 56.7 °F 30.00 in Calm     92% 0.01 in
23:05 59.0 °F 56.7 °F 30.00 in NNW 1.0 mph 2.0 mph 92% 0.01 in
23:10 59.0 °F 56.4 °F 30.00 in Calm   2.0 mph 91% 0.01 in
23:15 59.0 °F 56.4 °F 30.00 in Calm   1.0 mph 91% 0.01 in
23:20 59.0 °F 56.1 °F 30.00 in Calm   1.0 mph 90% 0.01 in
23:25 58.7 °F 55.5 °F 30.00 in Calm     89% 0.01 in
23:30 58.4 °F 54.9 °F 30.00 in Calm   2.0 mph 88% 0.01 in
23:35 58.2 °F 54.7 °F 30.00 in Calm   2.0 mph 88% 0.01 in
23:40 58.1 °F 54.6 °F 30.00 in Calm   1.0 mph 88% 0.01 in
23:45 58.0 °F 54.5 °F 30.00 in Calm   1.0 mph 88% 0.01 in
23:50 57.8 °F 54.3 °F 30.00 in NNW 1.0 mph 2.0 mph 88% 0.01 in
23:55 58.0 °F 54.8 °F 30.00 in Calm   2.0 mph 89% 0.01 in
Westford Weather
Compliments of Weather Underground

 
 
Current Radar Loop:

Copyright © WestfordWeather.net 2007-2014. All rights reserved.